Terminal Aerodrome Forecast
Issued by NWS Grand Forks, ND

Home | Current Version | Previous Version | Text Only | Print | Product List | Glossary On
Versions: 1 2 3 4 5 6 7 8 9 10 11 12 13 14 15 16 17 18 19 20
000
FTUS43 KFGF 201300 AAC
TAFGFK
TAF AMD
KGFK 201341Z 2014/2112 25007KT P6SM SCT025
      TEMPO 2014/2016 BKN025
     FM201600 25008KT P6SM BKN250
     FM201900 30015G30KT P6SM -TSRA BKN050CB
     FM202100 32015G25KT P6SM BKN080
     FM210100 32008KT P6SM SCT080=

USA.gov is the U.S. government's official web portal to all federal, state and local government web resources and services.